sensor_id;sensor_type;location;lat;lon;timestamp;temperature;humidity
13115;DHT22;6623;52.120;8.660;2023-06-22T00:00:42;28.30;49.60
13115;DHT22;6623;52.120;8.660;2023-06-22T00:03:07;28.30;49.60
13115;DHT22;6623;52.120;8.660;2023-06-22T00:05:33;28.30;49.60
13115;DHT22;6623;52.120;8.660;2023-06-22T00:08:02;28.30;49.60
13115;DHT22;6623;52.120;8.660;2023-06-22T00:10:28;28.30;49.60
13115;DHT22;6623;52.120;8.660;2023-06-22T00:12:53;28.30;49.60
13115;DHT22;6623;52.120;8.660;2023-06-22T00:15:19;28.30;49.60
13115;DHT22;6623;52.120;8.660;2023-06-22T00:17:45;28.30;49.60
13115;DHT22;6623;52.120;8.660;2023-06-22T00:20:11;28.30;49.70
13115;DHT22;6623;52.120;8.660;2023-06-22T00:22:37;28.30;49.60
13115;DHT22;6623;52.120;8.660;2023-06-22T00:25:06;28.30;49.70
13115;DHT22;6623;52.120;8.660;2023-06-22T00:27:32;28.30;49.60
13115;DHT22;6623;52.120;8.660;2023-06-22T00:29:57;28.30;49.60
13115;DHT22;6623;52.120;8.660;2023-06-22T00:32:23;28.30;49.60
13115;DHT22;6623;52.120;8.660;2023-06-22T00:34:48;28.20;49.60
13115;DHT22;6623;52.120;8.660;2023-06-22T00:37:15;28.30;49.60
13115;DHT22;6623;52.120;8.660;2023-06-22T00:39:42;28.30;49.60
13115;DHT22;6623;52.120;8.660;2023-06-22T00:42:07;28.30;49.70
13115;DHT22;6623;52.120;8.660;2023-06-22T00:44:33;28.20;49.60
13115;DHT22;6623;52.120;8.660;2023-06-22T00:46:58;28.30;49.70
13115;DHT22;6623;52.120;8.660;2023-06-22T00:49:25;28.30;49.60
13115;DHT22;6623;52.120;8.660;2023-06-22T00:51:52;28.20;49.60
13115;DHT22;6623;52.120;8.660;2023-06-22T00:54:17;28.30;49.60
13115;DHT22;6623;52.120;8.660;2023-06-22T00:56:53;28.30;49.70
13115;DHT22;6623;52.120;8.660;2023-06-22T00:59:20;28.20;49.60
13115;DHT22;6623;52.120;8.660;2023-06-22T01:01:46;28.30;49.70
13115;DHT22;6623;52.120;8.660;2023-06-22T01:04:12;28.30;49.70
13115;DHT22;6623;52.120;8.660;2023-06-22T01:07:05;28.20;49.60
13115;DHT22;6623;52.120;8.660;2023-06-22T01:09:38;28.30;49.70
13115;DHT22;6623;52.120;8.660;2023-06-22T01:12:07;28.30;49.70
13115;DHT22;6623;52.120;8.660;2023-06-22T01:15:04;28.20;49.60
13115;DHT22;6623;52.120;8.660;2023-06-22T01:17:33;28.20;49.60
13115;DHT22;6623;52.120;8.660;2023-06-22T01:20:00;28.30;49.70
13115;DHT22;6623;52.120;8.660;2023-06-22T01:22:31;28.20;49.60
13115;DHT22;6623;52.120;8.660;2023-06-22T01:25:20;28.20;49.60
13115;DHT22;6623;52.120;8.660;2023-06-22T01:28:18;28.20;49.60
13115;DHT22;6623;52.120;8.660;2023-06-22T01:30:46;28.20;50.20
13115;DHT22;6623;52.120;8.660;2023-06-22T01:33:13;28.20;49.60
13115;DHT22;6623;52.120;8.660;2023-06-22T01:35:39;28.30;49.70
13115;DHT22;6623;52.120;8.660;2023-06-22T01:38:05;28.20;49.60
13115;DHT22;6623;52.120;8.660;2023-06-22T01:40:33;28.20;49.60
13115;DHT22;6623;52.120;8.660;2023-06-22T01:43:00;28.20;49.60
13115;DHT22;6623;52.120;8.660;2023-06-22T01:45:27;28.20;49.60
13115;DHT22;6623;52.120;8.660;2023-06-22T01:47:53;28.20;50.30
13115;DHT22;6623;52.120;8.660;2023-06-22T01:50:20;28.20;49.60
13115;DHT22;6623;52.120;8.660;2023-06-22T01:52:46;28.20;49.60
13115;DHT22;6623;52.120;8.660;2023-06-22T01:55:11;28.20;49.60
13115;DHT22;6623;52.120;8.660;2023-06-22T01:57:37;28.20;49.60
13115;DHT22;6623;52.120;8.660;2023-06-22T02:00:04;28.20;49.60
13115;DHT22;6623;52.120;8.660;2023-06-22T02:02:40;28.30;49.70
13115;DHT22;6623;52.120;8.660;2023-06-22T02:05:09;28.20;49.60
13115;DHT22;6623;52.120;8.660;2023-06-22T02:07:44;28.20;49.60
13115;DHT22;6623;52.120;8.660;2023-06-22T02:10:14;28.30;49.70
13115;DHT22;6623;52.120;8.660;2023-06-22T02:12:42;28.20;49.60
13115;DHT22;6623;52.120;8.660;2023-06-22T02:15:09;28.30;49.70
13115;DHT22;6623;52.120;8.660;2023-06-22T02:17:36;28.20;49.60
13115;DHT22;6623;52.120;8.660;2023-06-22T02:20:05;28.20;49.60
13115;DHT22;6623;52.120;8.660;2023-06-22T02:22:33;28.30;49.70
13115;DHT22;6623;52.120;8.660;2023-06-22T02:24:58;28.30;49.70
13115;DHT22;6623;52.120;8.660;2023-06-22T02:27:24;28.20;49.60
13115;DHT22;6623;52.120;8.660;2023-06-22T02:29:49;28.20;49.60
13115;DHT22;6623;52.120;8.660;2023-06-22T02:32:15;28.20;49.60
13115;DHT22;6623;52.120;8.660;2023-06-22T02:34:42;28.20;49.60
13115;DHT22;6623;52.120;8.660;2023-06-22T02:37:13;28.20;49.60
13115;DHT22;6623;52.120;8.660;2023-06-22T02:39:39;28.20;49.60
13115;DHT22;6623;52.120;8.660;2023-06-22T02:42:06;28.20;49.60
13115;DHT22;6623;52.120;8.660;2023-06-22T02:44:31;28.30;49.70
13115;DHT22;6623;52.120;8.660;2023-06-22T02:46:58;28.30;49.70
13115;DHT22;6623;52.120;8.660;2023-06-22T02:49:24;28.20;49.70
13115;DHT22;6623;52.120;8.660;2023-06-22T02:51:50;28.20;49.60
13115;DHT22;6623;52.120;8.660;2023-06-22T02:54:16;28.30;49.70
13115;DHT22;6623;52.120;8.660;2023-06-22T02:56:42;28.20;49.60
13115;DHT22;6623;52.120;8.660;2023-06-22T02:59:09;28.20;49.60
13115;DHT22;6623;52.120;8.660;2023-06-22T03:01:36;28.30;49.70
13115;DHT22;6623;52.120;8.660;2023-06-22T03:04:06;28.20;49.60
13115;DHT22;6623;52.120;8.660;2023-06-22T03:06:32;28.20;49.60
13115;DHT22;6623;52.120;8.660;2023-06-22T03:09:00;28.20;50.20
13115;DHT22;6623;52.120;8.660;2023-06-22T03:11:26;28.20;49.60
13115;DHT22;6623;52.120;8.660;2023-06-22T03:13:52;28.30;49.70
13115;DHT22;6623;52.120;8.660;2023-06-22T03:16:18;28.30;49.70
13115;DHT22;6623;52.120;8.660;2023-06-22T03:18:44;28.20;49.60
13115;DHT22;6623;52.120;8.660;2023-06-22T03:21:10;28.30;49.70
13115;DHT22;6623;52.120;8.660;2023-06-22T03:23:35;28.20;49.60
13115;DHT22;6623;52.120;8.660;2023-06-22T03:26:02;28.30;49.70
13115;DHT22;6623;52.120;8.660;2023-06-22T03:28:27;28.20;49.60
13115;DHT22;6623;52.120;8.660;2023-06-22T03:30:53;28.20;49.60
13115;DHT22;6623;52.120;8.660;2023-06-22T03:33:19;28.30;49.70
13115;DHT22;6623;52.120;8.660;2023-06-22T03:35:45;28.30;49.70
13115;DHT22;6623;52.120;8.660;2023-06-22T03:38:11;28.20;49.60
13115;DHT22;6623;52.120;8.660;2023-06-22T03:40:37;28.20;49.60
13115;DHT22;6623;52.120;8.660;2023-06-22T03:43:02;28.20;49.60
13115;DHT22;6623;52.120;8.660;2023-06-22T03:45:28;28.30;49.70
13115;DHT22;6623;52.120;8.660;2023-06-22T03:47:54;28.20;49.60
13115;DHT22;6623;52.120;8.660;2023-06-22T03:50:19;28.20;49.60
13115;DHT22;6623;52.120;8.660;2023-06-22T03:52:46;28.20;49.60
13115;DHT22;6623;52.120;8.660;2023-06-22T03:55:12;28.30;49.70
13115;DHT22;6623;52.120;8.660;2023-06-22T03:57:38;28.20;49.60
13115;DHT22;6623;52.120;8.660;2023-06-22T04:00:04;28.20;49.60
13115;DHT22;6623;52.120;8.660;2023-06-22T04:02:31;28.30;49.70
13115;DHT22;6623;52.120;8.660;2023-06-22T04:04:57;28.20;49.60
13115;DHT22;6623;52.120;8.660;2023-06-22T04:07:22;28.20;49.60
13115;DHT22;6623;52.120;8.660;2023-06-22T04:09:48;28.20;49.60
13115;DHT22;6623;52.120;8.660;2023-06-22T04:12:14;28.30;49.70
13115;DHT22;6623;52.120;8.660;2023-06-22T04:14:39;28.30;49.70
13115;DHT22;6623;52.120;8.660;2023-06-22T04:17:05;28.30;49.70
13115;DHT22;6623;52.120;8.660;2023-06-22T04:19:31;28.20;49.60
13115;DHT22;6623;52.120;8.660;2023-06-22T04:21:56;28.30;49.70
13115;DHT22;6623;52.120;8.660;2023-06-22T04:24:22;28.30;49.70
13115;DHT22;6623;52.120;8.660;2023-06-22T04:26:47;28.30;49.70
13115;DHT22;6623;52.120;8.660;2023-06-22T04:29:13;28.20;49.60
13115;DHT22;6623;52.120;8.660;2023-06-22T04:31:39;28.30;49.70
13115;DHT22;6623;52.120;8.660;2023-06-22T04:34:05;28.20;49.60
13115;DHT22;6623;52.120;8.660;2023-06-22T04:36:36;28.30;49.70
13115;DHT22;6623;52.120;8.660;2023-06-22T04:39:07;28.30;49.70
13115;DHT22;6623;52.120;8.660;2023-06-22T04:41:40;28.30;49.70
13115;DHT22;6623;52.120;8.660;2023-06-22T04:44:10;28.20;49.60
13115;DHT22;6623;52.120;8.660;2023-06-22T04:46:36;28.30;49.90
13115;DHT22;6623;52.120;8.660;2023-06-22T04:49:07;28.20;49.60
13115;DHT22;6623;52.120;8.660;2023-06-22T04:51:36;28.30;49.70
13115;DHT22;6623;52.120;8.660;2023-06-22T04:54:03;28.30;49.70
13115;DHT22;6623;52.120;8.660;2023-06-22T04:56:31;28.30;49.70
13115;DHT22;6623;52.120;8.660;2023-06-22T04:58:56;28.30;50.30
13115;DHT22;6623;52.120;8.660;2023-06-22T05:01:23;28.20;49.60
13115;DHT22;6623;52.120;8.660;2023-06-22T05:03:48;28.30;49.70
13115;DHT22;6623;52.120;8.660;2023-06-22T05:06:14;28.30;49.70
13115;DHT22;6623;52.120;8.660;2023-06-22T05:08:40;28.30;49.70
13115;DHT22;6623;52.120;8.660;2023-06-22T05:11:05;28.30;49.70
13115;DHT22;6623;52.120;8.660;2023-06-22T05:13:32;28.20;49.60
13115;DHT22;6623;52.120;8.660;2023-06-22T05:15:57;28.30;49.70
13115;DHT22;6623;52.120;8.660;2023-06-22T05:18:30;28.20;49.60
13115;DHT22;6623;52.120;8.660;2023-06-22T05:20:57;28.30;49.70
13115;DHT22;6623;52.120;8.660;2023-06-22T05:23:23;28.20;49.60
13115;DHT22;6623;52.120;8.660;2023-06-22T05:25:49;28.20;49.60
13115;DHT22;6623;52.120;8.660;2023-06-22T05:28:14;28.30;49.70
13115;DHT22;6623;52.120;8.660;2023-06-22T05:30:40;28.20;49.60
13115;DHT22;6623;52.120;8.660;2023-06-22T05:33:05;28.20;49.60
13115;DHT22;6623;52.120;8.660;2023-06-22T05:35:31;28.20;49.60
13115;DHT22;6623;52.120;8.660;2023-06-22T05:37:56;28.20;49.70
13115;DHT22;6623;52.120;8.660;2023-06-22T05:40:22;28.20;49.60
13115;DHT22;6623;52.120;8.660;2023-06-22T05:42:47;28.20;49.70
13115;DHT22;6623;52.120;8.660;2023-06-22T05:45:13;28.20;49.70
13115;DHT22;6623;52.120;8.660;2023-06-22T05:47:39;28.20;49.70
13115;DHT22;6623;52.120;8.660;2023-06-22T05:50:05;28.20;49.70
13115;DHT22;6623;52.120;8.660;2023-06-22T05:52:34;28.20;49.70
13115;DHT22;6623;52.120;8.660;2023-06-22T05:54:59;28.20;49.70
13115;DHT22;6623;52.120;8.660;2023-06-22T05:57:25;28.20;49.80
13115;DHT22;6623;52.120;8.660;2023-06-22T05:59:50;28.20;49.70
13115;DHT22;6623;52.120;8.660;2023-06-22T06:02:16;28.20;49.70
13115;DHT22;6623;52.120;8.660;2023-06-22T06:04:42;28.20;49.80
13115;DHT22;6623;52.120;8.660;2023-06-22T06:07:07;28.20;49.80
13115;DHT22;6623;52.120;8.660;2023-06-22T06:09:33;28.20;49.80
13115;DHT22;6623;52.120;8.660;2023-06-22T06:11:58;28.20;49.80
13115;DHT22;6623;52.120;8.660;2023-06-22T06:14:24;28.20;49.80
13115;DHT22;6623;52.120;8.660;2023-06-22T06:16:49;28.20;49.80
13115;DHT22;6623;52.120;8.660;2023-06-22T06:19:15;28.20;49.80
13115;DHT22;6623;52.120;8.660;2023-06-22T06:21:40;28.20;49.80
13115;DHT22;6623;52.120;8.660;2023-06-22T06:24:06;28.20;49.90
13115;DHT22;6623;52.120;8.660;2023-06-22T06:26:32;28.20;49.90
13115;DHT22;6623;52.120;8.660;2023-06-22T06:28:59;28.20;49.90
13115;DHT22;6623;52.120;8.660;2023-06-22T06:31:25;28.20;49.90
13115;DHT22;6623;52.120;8.660;2023-06-22T06:33:54;28.20;49.90
13115;DHT22;6623;52.120;8.660;2023-06-22T06:36:19;28.20;49.90
13115;DHT22;6623;52.120;8.660;2023-06-22T06:38:45;28.20;49.90
13115;DHT22;6623;52.120;8.660;2023-06-22T06:41:15;28.20;50.00
13115;DHT22;6623;52.120;8.660;2023-06-22T06:43:40;28.20;50.00
13115;DHT22;6623;52.120;8.660;2023-06-22T06:46:08;28.20;50.00
13115;DHT22;6623;52.120;8.660;2023-06-22T06:48:34;28.20;50.00
13115;DHT22;6623;52.120;8.660;2023-06-22T06:50:59;28.20;50.00
13115;DHT22;6623;52.120;8.660;2023-06-22T06:53:25;28.20;50.00
13115;DHT22;6623;52.120;8.660;2023-06-22T06:55:50;28.20;50.00
13115;DHT22;6623;52.120;8.660;2023-06-22T06:58:16;28.20;50.00
13115;DHT22;6623;52.120;8.660;2023-06-22T07:00:41;28.20;50.10
13115;DHT22;6623;52.120;8.660;2023-06-22T07:03:08;28.20;50.10
13115;DHT22;6623;52.120;8.660;2023-06-22T07:05:34;28.20;50.10
13115;DHT22;6623;52.120;8.660;2023-06-22T07:08:00;28.20;50.10
13115;DHT22;6623;52.120;8.660;2023-06-22T07:10:26;28.20;50.10
13115;DHT22;6623;52.120;8.660;2023-06-22T07:12:51;28.20;50.10
13115;DHT22;6623;52.120;8.660;2023-06-22T07:15:17;28.20;50.10
13115;DHT22;6623;52.120;8.660;2023-06-22T07:17:43;28.20;50.10
13115;DHT22;6623;52.120;8.660;2023-06-22T07:20:09;28.20;50.10
13115;DHT22;6623;52.120;8.660;2023-06-22T07:22:40;28.20;50.10
13115;DHT22;6623;52.120;8.660;2023-06-22T07:25:06;28.20;50.10
13115;DHT22;6623;52.120;8.660;2023-06-22T07:27:39;28.20;50.20
13115;DHT22;6623;52.120;8.660;2023-06-22T07:30:08;28.20;50.20
13115;DHT22;6623;52.120;8.660;2023-06-22T07:32:34;28.20;50.20
13115;DHT22;6623;52.120;8.660;2023-06-22T07:35:00;28.20;50.20
13115;DHT22;6623;52.120;8.660;2023-06-22T07:37:26;28.20;50.20
13115;DHT22;6623;52.120;8.660;2023-06-22T07:39:53;28.20;50.20
13115;DHT22;6623;52.120;8.660;2023-06-22T07:42:26;28.20;50.20
13115;DHT22;6623;52.120;8.660;2023-06-22T07:44:52;28.20;50.30
13115;DHT22;6623;52.120;8.660;2023-06-22T07:47:17;28.20;50.30
13115;DHT22;6623;52.120;8.660;2023-06-22T07:49:45;28.20;50.30
13115;DHT22;6623;52.120;8.660;2023-06-22T07:52:11;28.20;50.30
13115;DHT22;6623;52.120;8.660;2023-06-22T07:54:37;28.20;50.30
13115;DHT22;6623;52.120;8.660;2023-06-22T07:57:03;28.20;50.30
13115;DHT22;6623;52.120;8.660;2023-06-22T07:59:28;28.20;50.30
13115;DHT22;6623;52.120;8.660;2023-06-22T08:01:55;28.20;50.30
13115;DHT22;6623;52.120;8.660;2023-06-22T08:04:20;28.20;50.30
13115;DHT22;6623;52.120;8.660;2023-06-22T08:06:46;28.20;50.40
13115;DHT22;6623;52.120;8.660;2023-06-22T08:09:12;28.20;50.40
13115;DHT22;6623;52.120;8.660;2023-06-22T08:11:38;28.20;50.40
13115;DHT22;6623;52.120;8.660;2023-06-22T08:14:03;28.30;50.50
13115;DHT22;6623;52.120;8.660;2023-06-22T08:16:29;28.20;50.40
13115;DHT22;6623;52.120;8.660;2023-06-22T08:18:54;28.20;50.40
13115;DHT22;6623;52.120;8.660;2023-06-22T08:21:20;28.20;51.10
13115;DHT22;6623;52.120;8.660;2023-06-22T08:23:45;28.30;50.50
13115;DHT22;6623;52.120;8.660;2023-06-22T08:26:11;28.30;50.50
13115;DHT22;6623;52.120;8.660;2023-06-22T08:28:37;28.30;50.50
13115;DHT22;6623;52.120;8.660;2023-06-22T08:31:02;28.30;50.50
13115;DHT22;6623;52.120;8.660;2023-06-22T08:33:29;28.30;50.60
13115;DHT22;6623;52.120;8.660;2023-06-22T08:35:56;28.20;50.50
13115;DHT22;6623;52.120;8.660;2023-06-22T08:38:21;28.30;50.60
13115;DHT22;6623;52.120;8.660;2023-06-22T08:40:47;28.30;50.60
13115;DHT22;6623;52.120;8.660;2023-06-22T08:43:12;28.20;50.50
13115;DHT22;6623;52.120;8.660;2023-06-22T08:45:38;28.30;50.60
13115;DHT22;6623;52.120;8.660;2023-06-22T08:48:03;28.30;50.60
13115;DHT22;6623;52.120;8.660;2023-06-22T08:50:29;28.30;50.60
13115;DHT22;6623;52.120;8.660;2023-06-22T08:52:54;28.20;50.60
13115;DHT22;6623;52.120;8.660;2023-06-22T08:55:20;28.30;50.70
13115;DHT22;6623;52.120;8.660;2023-06-22T08:57:45;28.30;50.70
13115;DHT22;6623;52.120;8.660;2023-06-22T09:00:11;28.30;50.70
13115;DHT22;6623;52.120;8.660;2023-06-22T09:02:42;28.20;50.60
13115;DHT22;6623;52.120;8.660;2023-06-22T09:05:07;28.30;50.70
13115;DHT22;6623;52.120;8.660;2023-06-22T09:07:33;28.30;50.70
13115;DHT22;6623;52.120;8.660;2023-06-22T09:10:00;28.30;50.70
13115;DHT22;6623;52.120;8.660;2023-06-22T09:12:25;28.30;50.70
13115;DHT22;6623;52.120;8.660;2023-06-22T09:14:53;28.30;50.70
13115;DHT22;6623;52.120;8.660;2023-06-22T09:17:19;28.30;50.70
13115;DHT22;6623;52.120;8.660;2023-06-22T09:19:44;28.30;50.80
13115;DHT22;6623;52.120;8.660;2023-06-22T09:22:10;28.30;50.70
13115;DHT22;6623;52.120;8.660;2023-06-22T09:24:36;28.30;50.80
13115;DHT22;6623;52.120;8.660;2023-06-22T09:27:02;28.30;50.80
13115;DHT22;6623;52.120;8.660;2023-06-22T09:29:27;28.30;50.80
13115;DHT22;6623;52.120;8.660;2023-06-22T09:31:53;28.30;50.80
13115;DHT22;6623;52.120;8.660;2023-06-22T09:34:21;28.30;50.80
13115;DHT22;6623;52.120;8.660;2023-06-22T09:36:47;28.30;50.80
13115;DHT22;6623;52.120;8.660;2023-06-22T09:39:13;28.30;50.80
13115;DHT22;6623;52.120;8.660;2023-06-22T09:41:38;28.30;50.80
13115;DHT22;6623;52.120;8.660;2023-06-22T09:44:04;28.30;50.80
13115;DHT22;6623;52.120;8.660;2023-06-22T09:46:29;28.30;50.80
13115;DHT22;6623;52.120;8.660;2023-06-22T09:48:55;28.30;50.80
13115;DHT22;6623;52.120;8.660;2023-06-22T09:51:20;28.30;50.90
13115;DHT22;6623;52.120;8.660;2023-06-22T09:53:47;28.30;50.90
13115;DHT22;6623;52.120;8.660;2023-06-22T09:56:13;28.30;50.90
13115;DHT22;6623;52.120;8.660;2023-06-22T09:58:43;28.30;50.90
13115;DHT22;6623;52.120;8.660;2023-06-22T10:01:09;28.30;50.90
13115;DHT22;6623;52.120;8.660;2023-06-22T10:03:36;28.30;50.90
13115;DHT22;6623;52.120;8.660;2023-06-22T10:06:02;28.30;50.90
13115;DHT22;6623;52.120;8.660;2023-06-22T10:08:27;28.30;50.90
13115;DHT22;6623;52.120;8.660;2023-06-22T10:10:53;28.30;51.00
13115;DHT22;6623;52.120;8.660;2023-06-22T10:13:18;28.30;51.00
13115;DHT22;6623;52.120;8.660;2023-06-22T10:15:44;28.30;51.00
13115;DHT22;6623;52.120;8.660;2023-06-22T10:18:16;28.30;51.00
13115;DHT22;6623;52.120;8.660;2023-06-22T10:20:42;28.30;51.00
13115;DHT22;6623;52.120;8.660;2023-06-22T10:23:08;28.30;51.00
13115;DHT22;6623;52.120;8.660;2023-06-22T10:25:33;28.30;51.00
13115;DHT22;6623;52.120;8.660;2023-06-22T10:27:59;28.30;51.00
13115;DHT22;6623;52.120;8.660;2023-06-22T10:30:24;28.30;51.00
13115;DHT22;6623;52.120;8.660;2023-06-22T10:32:50;28.30;51.00
13115;DHT22;6623;52.120;8.660;2023-06-22T10:35:15;28.30;51.10
13115;DHT22;6623;52.120;8.660;2023-06-22T10:37:45;28.30;51.10
13115;DHT22;6623;52.120;8.660;2023-06-22T10:40:15;28.30;51.10
13115;DHT22;6623;52.120;8.660;2023-06-22T10:42:41;28.30;51.10
13115;DHT22;6623;52.120;8.660;2023-06-22T10:45:08;28.20;51.00
13115;DHT22;6623;52.120;8.660;2023-06-22T10:47:34;28.30;51.10
13115;DHT22;6623;52.120;8.660;2023-06-22T10:50:01;28.30;51.10
13115;DHT22;6623;52.120;8.660;2023-06-22T10:52:27;28.30;51.20
13115;DHT22;6623;52.120;8.660;2023-06-22T10:54:52;28.30;51.10
13115;DHT22;6623;52.120;8.660;2023-06-22T10:57:18;28.30;51.20
13115;DHT22;6623;52.120;8.660;2023-06-22T10:59:44;28.30;51.20
13115;DHT22;6623;52.120;8.660;2023-06-22T11:02:09;28.30;51.20
13115;DHT22;6623;52.120;8.660;2023-06-22T11:04:35;28.30;51.20
13115;DHT22;6623;52.120;8.660;2023-06-22T11:07:00;28.30;51.20
13115;DHT22;6623;52.120;8.660;2023-06-22T11:09:26;28.30;51.20
13115;DHT22;6623;52.120;8.660;2023-06-22T11:11:52;28.30;51.20
13115;DHT22;6623;52.120;8.660;2023-06-22T11:14:20;28.30;51.30
13115;DHT22;6623;52.120;8.660;2023-06-22T11:16:46;28.30;51.30
13115;DHT22;6623;52.120;8.660;2023-06-22T11:19:12;28.30;51.20
13115;DHT22;6623;52.120;8.660;2023-06-22T11:21:38;28.30;51.30
13115;DHT22;6623;52.120;8.660;2023-06-22T11:24:03;28.30;51.30
13115;DHT22;6623;52.120;8.660;2023-06-22T11:26:29;28.30;51.30
13115;DHT22;6623;52.120;8.660;2023-06-22T11:28:55;28.30;51.40
13115;DHT22;6623;52.120;8.660;2023-06-22T11:31:20;28.30;51.40
13115;DHT22;6623;52.120;8.660;2023-06-22T11:33:46;28.30;51.40
13115;DHT22;6623;52.120;8.660;2023-06-22T11:36:13;28.30;51.40
13115;DHT22;6623;52.120;8.660;2023-06-22T11:38:39;28.30;51.40
13115;DHT22;6623;52.120;8.660;2023-06-22T11:41:09;28.30;51.40
13115;DHT22;6623;52.120;8.660;2023-06-22T11:43:35;28.30;51.40
13115;DHT22;6623;52.120;8.660;2023-06-22T11:46:02;28.30;51.40
13115;DHT22;6623;52.120;8.660;2023-06-22T11:48:28;28.30;51.40
13115;DHT22;6623;52.120;8.660;2023-06-22T11:50:54;28.30;51.40
13115;DHT22;6623;52.120;8.660;2023-06-22T11:53:21;28.30;51.40
13115;DHT22;6623;52.120;8.660;2023-06-22T11:55:47;28.30;51.40
13115;DHT22;6623;52.120;8.660;2023-06-22T11:58:13;28.30;51.50
13115;DHT22;6623;52.120;8.660;2023-06-22T12:00:38;28.30;51.50
13115;DHT22;6623;52.120;8.660;2023-06-22T12:03:04;28.30;51.50
13115;DHT22;6623;52.120;8.660;2023-06-22T12:05:29;28.30;51.50
13115;DHT22;6623;52.120;8.660;2023-06-22T12:07:55;28.30;51.50
13115;DHT22;6623;52.120;8.660;2023-06-22T12:10:25;28.30;51.50
13115;DHT22;6623;52.120;8.660;2023-06-22T12:12:51;28.30;51.50
13115;DHT22;6623;52.120;8.660;2023-06-22T12:15:17;28.30;51.50
13115;DHT22;6623;52.120;8.660;2023-06-22T12:17:42;28.30;51.50
13115;DHT22;6623;52.120;8.660;2023-06-22T12:20:08;28.30;51.50
13115;DHT22;6623;52.120;8.660;2023-06-22T12:22:34;28.30;51.60
13115;DHT22;6623;52.120;8.660;2023-06-22T12:25:01;28.30;51.50
13115;DHT22;6623;52.120;8.660;2023-06-22T12:27:26;28.30;51.50
13115;DHT22;6623;52.120;8.660;2023-06-22T12:29:52;28.30;51.50
13115;DHT22;6623;52.120;8.660;2023-06-22T12:32:18;28.30;51.50
13115;DHT22;6623;52.120;8.660;2023-06-22T12:34:44;28.30;51.50
13115;DHT22;6623;52.120;8.660;2023-06-22T12:37:10;28.30;51.60
13115;DHT22;6623;52.120;8.660;2023-06-22T12:39:36;28.40;51.70
13115;DHT22;6623;52.120;8.660;2023-06-22T12:42:01;28.30;51.60
13115;DHT22;6623;52.120;8.660;2023-06-22T12:44:27;28.30;51.70
13115;DHT22;6623;52.120;8.660;2023-06-22T12:46:52;28.30;51.60
13115;DHT22;6623;52.120;8.660;2023-06-22T12:49:18;28.30;51.60
13115;DHT22;6623;52.120;8.660;2023-06-22T12:51:44;28.30;51.60
13115;DHT22;6623;52.120;8.660;2023-06-22T12:54:10;28.40;51.70
13115;DHT22;6623;52.120;8.660;2023-06-22T12:56:36;28.40;51.70
13115;DHT22;6623;52.120;8.660;2023-06-22T12:59:02;28.40;51.70
13115;DHT22;6623;52.120;8.660;2023-06-22T13:01:28;28.40;51.70
13115;DHT22;6623;52.120;8.660;2023-06-22T13:03:54;28.30;51.60
13115;DHT22;6623;52.120;8.660;2023-06-22T13:06:19;28.30;51.70
13115;DHT22;6623;52.120;8.660;2023-06-22T13:08:45;28.40;51.80
13115;DHT22;6623;52.120;8.660;2023-06-22T13:11:11;28.40;51.70
13115;DHT22;6623;52.120;8.660;2023-06-22T13:13:36;28.30;51.70
13115;DHT22;6623;52.120;8.660;2023-06-22T13:16:02;28.40;51.80
13115;DHT22;6623;52.120;8.660;2023-06-22T13:18:27;28.40;51.70
13115;DHT22;6623;52.120;8.660;2023-06-22T13:20:53;28.40;51.80
13115;DHT22;6623;52.120;8.660;2023-06-22T13:23:20;28.40;51.80
13115;DHT22;6623;52.120;8.660;2023-06-22T13:25:46;28.40;51.90
13115;DHT22;6623;52.120;8.660;2023-06-22T13:28:12;28.40;51.90
13115;DHT22;6623;52.120;8.660;2023-06-22T13:30:39;28.40;51.90
13115;DHT22;6623;52.120;8.660;2023-06-22T13:33:05;28.40;51.90
13115;DHT22;6623;52.120;8.660;2023-06-22T13:35:31;28.40;51.90
13115;DHT22;6623;52.120;8.660;2023-06-22T13:37:56;28.40;51.90
13115;DHT22;6623;52.120;8.660;2023-06-22T13:40:22;28.40;51.90
13115;DHT22;6623;52.120;8.660;2023-06-22T13:42:47;28.30;51.90
13115;DHT22;6623;52.120;8.660;2023-06-22T13:45:13;28.40;51.90
13115;DHT22;6623;52.120;8.660;2023-06-22T13:47:39;28.40;52.00
13115;DHT22;6623;52.120;8.660;2023-06-22T13:50:05;28.40;52.10
13115;DHT22;6623;52.120;8.660;2023-06-22T13:52:30;28.40;52.10
13115;DHT22;6623;52.120;8.660;2023-06-22T13:54:56;28.40;52.10
13115;DHT22;6623;52.120;8.660;2023-06-22T13:57:21;28.40;52.10
13115;DHT22;6623;52.120;8.660;2023-06-22T13:59:47;28.40;52.20
13115;DHT22;6623;52.120;8.660;2023-06-22T14:02:12;28.40;52.20
13115;DHT22;6623;52.120;8.660;2023-06-22T14:04:38;28.40;52.20
13115;DHT22;6623;52.120;8.660;2023-06-22T14:07:04;28.40;52.30
13115;DHT22;6623;52.120;8.660;2023-06-22T14:09:30;28.40;52.30
13115;DHT22;6623;52.120;8.660;2023-06-22T14:11:55;28.40;52.40
13115;DHT22;6623;52.120;8.660;2023-06-22T14:14:21;28.40;52.40
13115;DHT22;6623;52.120;8.660;2023-06-22T14:16:47;28.40;52.50
13115;DHT22;6623;52.120;8.660;2023-06-22T14:19:16;28.40;52.60
13115;DHT22;6623;52.120;8.660;2023-06-22T14:21:42;28.40;52.60
13115;DHT22;6623;52.120;8.660;2023-06-22T14:24:07;28.40;52.70
13115;DHT22;6623;52.120;8.660;2023-06-22T14:26:33;28.40;52.90
13115;DHT22;6623;52.120;8.660;2023-06-22T14:28:58;28.40;53.00
13115;DHT22;6623;52.120;8.660;2023-06-22T14:31:24;28.40;53.10
13115;DHT22;6623;52.120;8.660;2023-06-22T14:33:50;28.40;53.20
13115;DHT22;6623;52.120;8.660;2023-06-22T14:36:16;28.40;53.30
13115;DHT22;6623;52.120;8.660;2023-06-22T14:38:43;28.40;53.50
13115;DHT22;6623;52.120;8.660;2023-06-22T14:41:08;28.40;53.50
13115;DHT22;6623;52.120;8.660;2023-06-22T14:43:34;28.40;53.50
13115;DHT22;6623;52.120;8.660;2023-06-22T14:46:00;28.40;53.50
13115;DHT22;6623;52.120;8.660;2023-06-22T14:48:25;28.40;53.60
13115;DHT22;6623;52.120;8.660;2023-06-22T14:50:51;28.40;53.60
13115;DHT22;6623;52.120;8.660;2023-06-22T14:53:17;28.40;53.60
13115;DHT22;6623;52.120;8.660;2023-06-22T14:55:42;28.40;53.60
13115;DHT22;6623;52.120;8.660;2023-06-22T14:58:14;28.40;53.70
13115;DHT22;6623;52.120;8.660;2023-06-22T15:00:40;28.40;53.60
13115;DHT22;6623;52.120;8.660;2023-06-22T15:03:05;28.40;53.70
13115;DHT22;6623;52.120;8.660;2023-06-22T15:05:32;28.40;53.80
13115;DHT22;6623;52.120;8.660;2023-06-22T15:07:58;28.40;53.70
13115;DHT22;6623;52.120;8.660;2023-06-22T15:10:24;28.40;53.70
13115;DHT22;6623;52.120;8.660;2023-06-22T15:12:49;28.40;53.70
13115;DHT22;6623;52.120;8.660;2023-06-22T15:15:15;28.40;53.80
13115;DHT22;6623;52.120;8.660;2023-06-22T15:17:41;28.40;53.80
13115;DHT22;6623;52.120;8.660;2023-06-22T15:20:06;28.40;53.80
13115;DHT22;6623;52.120;8.660;2023-06-22T15:22:32;28.40;53.80
13115;DHT22;6623;52.120;8.660;2023-06-22T15:24:57;28.40;53.80
13115;DHT22;6623;52.120;8.660;2023-06-22T15:27:24;28.40;53.90
13115;DHT22;6623;52.120;8.660;2023-06-22T15:29:49;28.40;53.90
13115;DHT22;6623;52.120;8.660;2023-06-22T15:32:15;28.40;53.90
13115;DHT22;6623;52.120;8.660;2023-06-22T15:34:40;28.40;54.00
13115;DHT22;6623;52.120;8.660;2023-06-22T15:37:06;28.40;53.90
13115;DHT22;6623;52.120;8.660;2023-06-22T15:39:31;28.40;53.90